sensor_id;sensor_type;location;lat;lon;timestamp;P1;durP1;ratioP1;P2;durP2;ratioP2
22677;SDS011;26259;50.214;18.620;2023-02-04T00:01:38;9.23;;;3.73;;
22677;SDS011;26259;50.214;18.620;2023-02-04T00:04:03;6.67;;;3.73;;
22677;SDS011;26259;50.214;18.620;2023-02-04T00:06:29;14.53;;;5.70;;
22677;SDS011;26259;50.214;18.620;2023-02-04T00:08:55;4.20;;;2.50;;
22677;SDS011;26259;50.214;18.620;2023-02-04T00:11:20;22.57;;;5.83;;
22677;SDS011;26259;50.214;18.620;2023-02-04T00:13:46;6.03;;;2.77;;
22677;SDS011;26259;50.214;18.620;2023-02-04T00:16:12;7.13;;;2.80;;
22677;SDS011;26259;50.214;18.620;2023-02-04T00:18:38;8.47;;;3.10;;
22677;SDS011;26259;50.214;18.620;2023-02-04T00:21:03;5.90;;;2.63;;
22677;SDS011;26259;50.214;18.620;2023-02-04T00:23:29;10.37;;;3.73;;
22677;SDS011;26259;50.214;18.620;2023-02-04T00:25:54;5.70;;;3.23;;
22677;SDS011;26259;50.214;18.620;2023-02-04T00:28:20;11.47;;;5.60;;
22677;SDS011;26259;50.214;18.620;2023-02-04T00:30:46;14.77;;;7.17;;
22677;SDS011;26259;50.214;18.620;2023-02-04T00:33:11;10.07;;;5.73;;
22677;SDS011;26259;50.214;18.620;2023-02-04T00:35:37;10.50;;;4.30;;
22677;SDS011;26259;50.214;18.620;2023-02-04T00:38:03;9.00;;;4.77;;
22677;SDS011;26259;50.214;18.620;2023-02-04T00:40:30;6.47;;;3.57;;
22677;SDS011;26259;50.214;18.620;2023-02-04T00:42:56;11.93;;;5.33;;
22677;SDS011;26259;50.214;18.620;2023-02-04T00:45:22;9.53;;;4.60;;
22677;SDS011;26259;50.214;18.620;2023-02-04T00:47:47;13.43;;;5.10;;
22677;SDS011;26259;50.214;18.620;2023-02-04T00:50:13;13.50;;;3.93;;
22677;SDS011;26259;50.214;18.620;2023-02-04T00:52:39;8.87;;;4.30;;
22677;SDS011;26259;50.214;18.620;2023-02-04T00:55:04;9.70;;;4.37;;
22677;SDS011;26259;50.214;18.620;2023-02-04T00:57:31;17.53;;;8.50;;
22677;SDS011;26259;50.214;18.620;2023-02-04T00:59:57;13.47;;;5.20;;
22677;SDS011;26259;50.214;18.620;2023-02-04T01:02:23;9.67;;;5.47;;
22677;SDS011;26259;50.214;18.620;2023-02-04T01:04:49;5.73;;;3.43;;
22677;SDS011;26259;50.214;18.620;2023-02-04T01:07:14;4.67;;;1.60;;
22677;SDS011;26259;50.214;18.620;2023-02-04T01:09:40;4.43;;;3.57;;
22677;SDS011;26259;50.214;18.620;2023-02-04T01:12:05;7.23;;;4.90;;
22677;SDS011;26259;50.214;18.620;2023-02-04T01:14:31;4.57;;;2.10;;
22677;SDS011;26259;50.214;18.620;2023-02-04T01:16:57;4.40;;;1.93;;
22677;SDS011;26259;50.214;18.620;2023-02-04T01:19:23;4.30;;;1.90;;
22677;SDS011;26259;50.214;18.620;2023-02-04T01:21:48;8.50;;;4.70;;
22677;SDS011;26259;50.214;18.620;2023-02-04T01:24:15;8.60;;;3.83;;
22677;SDS011;26259;50.214;18.620;2023-02-04T01:26:41;5.53;;;2.60;;
22677;SDS011;26259;50.214;18.620;2023-02-04T01:29:06;5.97;;;2.87;;
22677;SDS011;26259;50.214;18.620;2023-02-04T01:31:32;6.90;;;3.63;;
22677;SDS011;26259;50.214;18.620;2023-02-04T01:33:58;2.97;;;1.30;;
22677;SDS011;26259;50.214;18.620;2023-02-04T01:36:25;4.30;;;1.43;;
22677;SDS011;26259;50.214;18.620;2023-02-04T01:38:50;2.60;;;1.60;;
22677;SDS011;26259;50.214;18.620;2023-02-04T01:41:16;1.47;;;0.90;;
22677;SDS011;26259;50.214;18.620;2023-02-04T01:43:43;1.00;;;0.67;;
22677;SDS011;26259;50.214;18.620;2023-02-04T01:46:09;1.30;;;0.80;;
22677;SDS011;26259;50.214;18.620;2023-02-04T01:48:35;6.20;;;1.53;;
22677;SDS011;26259;50.214;18.620;2023-02-04T01:51:05;2.20;;;0.90;;
22677;SDS011;26259;50.214;18.620;2023-02-04T01:53:33;3.33;;;0.60;;
22677;SDS011;26259;50.214;18.620;2023-02-04T01:56:00;0.40;;;0.40;;
22677;SDS011;26259;50.214;18.620;2023-02-04T01:58:31;6.57;;;2.43;;
22677;SDS011;26259;50.214;18.620;2023-02-04T02:00:57;4.20;;;1.73;;
22677;SDS011;26259;50.214;18.620;2023-02-04T02:03:23;2.20;;;1.13;;
22677;SDS011;26259;50.214;18.620;2023-02-04T02:05:49;2.60;;;0.77;;
22677;SDS011;26259;50.214;18.620;2023-02-04T02:08:17;3.97;;;1.60;;
22677;SDS011;26259;50.214;18.620;2023-02-04T02:10:44;1.57;;;1.00;;
22677;SDS011;26259;50.214;18.620;2023-02-04T02:13:14;4.87;;;1.30;;
22677;SDS011;26259;50.214;18.620;2023-02-04T02:15:41;1.33;;;0.93;;
22677;SDS011;26259;50.214;18.620;2023-02-04T02:18:07;1.33;;;0.90;;
22677;SDS011;26259;50.214;18.620;2023-02-04T02:20:34;3.67;;;1.70;;
22677;SDS011;26259;50.214;18.620;2023-02-04T02:23:12;1.47;;;1.30;;
22677;SDS011;26259;50.214;18.620;2023-02-04T02:25:48;1.67;;;1.30;;
22677;SDS011;26259;50.214;18.620;2023-02-04T02:28:16;3.90;;;1.60;;
22677;SDS011;26259;50.214;18.620;2023-02-04T02:30:43;1.70;;;1.23;;
22677;SDS011;26259;50.214;18.620;2023-02-04T02:33:10;2.10;;;1.60;;
22677;SDS011;26259;50.214;18.620;2023-02-04T02:35:38;2.43;;;1.90;;
22677;SDS011;26259;50.214;18.620;2023-02-04T02:38:07;1.87;;;1.50;;
22677;SDS011;26259;50.214;18.620;2023-02-04T02:40:33;3.77;;;1.70;;
22677;SDS011;26259;50.214;18.620;2023-02-04T02:42:59;1.70;;;1.60;;
22677;SDS011;26259;50.214;18.620;2023-02-04T02:45:26;5.57;;;2.23;;
22677;SDS011;26259;50.214;18.620;2023-02-04T02:47:55;2.90;;;2.60;;
22677;SDS011;26259;50.214;18.620;2023-02-04T02:50:23;2.37;;;1.97;;
22677;SDS011;26259;50.214;18.620;2023-02-04T02:52:52;2.93;;;1.70;;
22677;SDS011;26259;50.214;18.620;2023-02-04T02:55:18;1.97;;;1.73;;
22677;SDS011;26259;50.214;18.620;2023-02-04T02:57:46;1.90;;;1.70;;
22677;SDS011;26259;50.214;18.620;2023-02-04T03:00:14;2.90;;;2.33;;
22677;SDS011;26259;50.214;18.620;2023-02-04T03:02:42;4.70;;;4.00;;
22677;SDS011;26259;50.214;18.620;2023-02-04T03:05:09;3.13;;;2.57;;
22677;SDS011;26259;50.214;18.620;2023-02-04T03:07:36;3.77;;;2.90;;
22677;SDS011;26259;50.214;18.620;2023-02-04T03:10:02;2.20;;;2.00;;
22677;SDS011;26259;50.214;18.620;2023-02-04T03:12:28;2.93;;;2.10;;
22677;SDS011;26259;50.214;18.620;2023-02-04T03:14:54;2.60;;;2.40;;
22677;SDS011;26259;50.214;18.620;2023-02-04T03:17:19;7.97;;;2.90;;
22677;SDS011;26259;50.214;18.620;2023-02-04T03:19:46;1.73;;;1.63;;
22677;SDS011;26259;50.214;18.620;2023-02-04T03:22:12;4.10;;;1.90;;
22677;SDS011;26259;50.214;18.620;2023-02-04T03:24:38;3.13;;;2.87;;
22677;SDS011;26259;50.214;18.620;2023-02-04T03:27:04;3.30;;;2.03;;
22677;SDS011;26259;50.214;18.620;2023-02-04T03:29:30;2.87;;;2.17;;
22677;SDS011;26259;50.214;18.620;2023-02-04T03:31:55;2.20;;;2.00;;
22677;SDS011;26259;50.214;18.620;2023-02-04T03:34:23;2.23;;;2.03;;
22677;SDS011;26259;50.214;18.620;2023-02-04T03:36:49;3.90;;;3.00;;
22677;SDS011;26259;50.214;18.620;2023-02-04T03:39:15;3.33;;;2.17;;
22677;SDS011;26259;50.214;18.620;2023-02-04T03:41:41;3.00;;;2.70;;
22677;SDS011;26259;50.214;18.620;2023-02-04T03:44:07;2.17;;;2.07;;
22677;SDS011;26259;50.214;18.620;2023-02-04T03:46:32;2.43;;;2.23;;
22677;SDS011;26259;50.214;18.620;2023-02-04T03:48:58;2.40;;;1.93;;
22677;SDS011;26259;50.214;18.620;2023-02-04T03:51:23;20.63;;;8.00;;
22677;SDS011;26259;50.214;18.620;2023-02-04T03:53:50;11.07;;;5.83;;
22677;SDS011;26259;50.214;18.620;2023-02-04T03:56:15;21.33;;;10.27;;
22677;SDS011;26259;50.214;18.620;2023-02-04T03:58:41;10.17;;;5.80;;
22677;SDS011;26259;50.214;18.620;2023-02-04T04:01:06;10.67;;;7.20;;
22677;SDS011;26259;50.214;18.620;2023-02-04T04:03:32;12.37;;;6.73;;
22677;SDS011;26259;50.214;18.620;2023-02-04T04:05:58;27.23;;;12.60;;
22677;SDS011;26259;50.214;18.620;2023-02-04T04:08:23;17.90;;;9.33;;
22677;SDS011;26259;50.214;18.620;2023-02-04T04:10:49;24.80;;;12.90;;
22677;SDS011;26259;50.214;18.620;2023-02-04T04:13:15;12.13;;;8.13;;
22677;SDS011;26259;50.214;18.620;2023-02-04T04:15:40;20.83;;;9.80;;
22677;SDS011;26259;50.214;18.620;2023-02-04T04:18:06;12.73;;;7.00;;
22677;SDS011;26259;50.214;18.620;2023-02-04T04:20:31;23.77;;;12.33;;
22677;SDS011;26259;50.214;18.620;2023-02-04T04:22:57;16.63;;;10.30;;
22677;SDS011;26259;50.214;18.620;2023-02-04T04:25:23;11.67;;;8.33;;
22677;SDS011;26259;50.214;18.620;2023-02-04T04:27:48;11.90;;;8.00;;
22677;SDS011;26259;50.214;18.620;2023-02-04T04:30:14;9.07;;;6.67;;
22677;SDS011;26259;50.214;18.620;2023-02-04T04:32:40;9.90;;;7.00;;
22677;SDS011;26259;50.214;18.620;2023-02-04T04:35:05;15.60;;;10.67;;
22677;SDS011;26259;50.214;18.620;2023-02-04T04:37:31;19.20;;;10.97;;
22677;SDS011;26259;50.214;18.620;2023-02-04T04:39:58;11.27;;;8.03;;
22677;SDS011;26259;50.214;18.620;2023-02-04T04:42:25;9.87;;;7.50;;
22677;SDS011;26259;50.214;18.620;2023-02-04T04:44:50;13.43;;;8.43;;
22677;SDS011;26259;50.214;18.620;2023-02-04T04:47:16;8.47;;;6.20;;
22677;SDS011;26259;50.214;18.620;2023-02-04T04:49:42;15.93;;;8.37;;
22677;SDS011;26259;50.214;18.620;2023-02-04T04:52:07;11.93;;;7.93;;
22677;SDS011;26259;50.214;18.620;2023-02-04T04:54:33;15.27;;;8.30;;
22677;SDS011;26259;50.214;18.620;2023-02-04T04:56:58;9.30;;;6.80;;
22677;SDS011;26259;50.214;18.620;2023-02-04T04:59:24;8.97;;;6.63;;
22677;SDS011;26259;50.214;18.620;2023-02-04T05:01:49;9.37;;;6.20;;
22677;SDS011;26259;50.214;18.620;2023-02-04T05:04:15;13.97;;;8.40;;
22677;SDS011;26259;50.214;18.620;2023-02-04T05:06:40;14.10;;;9.47;;
22677;SDS011;26259;50.214;18.620;2023-02-04T05:09:06;8.10;;;6.40;;
22677;SDS011;26259;50.214;18.620;2023-02-04T05:11:33;9.43;;;5.97;;
22677;SDS011;26259;50.214;18.620;2023-02-04T05:13:59;6.37;;;4.80;;
22677;SDS011;26259;50.214;18.620;2023-02-04T05:16:24;11.17;;;6.73;;
22677;SDS011;26259;50.214;18.620;2023-02-04T05:18:50;7.43;;;4.77;;
22677;SDS011;26259;50.214;18.620;2023-02-04T05:21:16;6.37;;;4.73;;
22677;SDS011;26259;50.214;18.620;2023-02-04T05:23:41;7.43;;;5.13;;
22677;SDS011;26259;50.214;18.620;2023-02-04T05:26:07;9.43;;;5.13;;
22677;SDS011;26259;50.214;18.620;2023-02-04T05:28:32;5.00;;;4.17;;
22677;SDS011;26259;50.214;18.620;2023-02-04T05:30:58;5.57;;;4.20;;
22677;SDS011;26259;50.214;18.620;2023-02-04T05:33:24;7.43;;;4.80;;
22677;SDS011;26259;50.214;18.620;2023-02-04T05:35:49;5.13;;;3.50;;
22677;SDS011;26259;50.214;18.620;2023-02-04T05:38:15;5.47;;;3.37;;
22677;SDS011;26259;50.214;18.620;2023-02-04T05:40:40;7.13;;;3.73;;
22677;SDS011;26259;50.214;18.620;2023-02-04T05:43:06;5.00;;;4.20;;
22677;SDS011;26259;50.214;18.620;2023-02-04T05:45:32;6.13;;;4.50;;
22677;SDS011;26259;50.214;18.620;2023-02-04T05:47:57;6.80;;;4.47;;
22677;SDS011;26259;50.214;18.620;2023-02-04T05:50:23;5.90;;;3.70;;
22677;SDS011;26259;50.214;18.620;2023-02-04T05:52:48;6.47;;;4.00;;
22677;SDS011;26259;50.214;18.620;2023-02-04T05:55:14;9.80;;;5.80;;
22677;SDS011;26259;50.214;18.620;2023-02-04T05:57:39;6.57;;;4.23;;
22677;SDS011;26259;50.214;18.620;2023-02-04T06:00:05;7.53;;;5.13;;
22677;SDS011;26259;50.214;18.620;2023-02-04T06:02:32;5.13;;;4.47;;
22677;SDS011;26259;50.214;18.620;2023-02-04T06:04:58;8.10;;;5.03;;
22677;SDS011;26259;50.214;18.620;2023-02-04T06:07:24;7.90;;;4.50;;
22677;SDS011;26259;50.214;18.620;2023-02-04T06:09:49;7.70;;;4.87;;
22677;SDS011;26259;50.214;18.620;2023-02-04T06:12:15;6.23;;;4.53;;
22677;SDS011;26259;50.214;18.620;2023-02-04T06:14:41;6.90;;;4.50;;
22677;SDS011;26259;50.214;18.620;2023-02-04T06:17:06;7.90;;;5.00;;
22677;SDS011;26259;50.214;18.620;2023-02-04T06:19:32;7.43;;;5.50;;
22677;SDS011;26259;50.214;18.620;2023-02-04T06:21:57;9.17;;;5.67;;
22677;SDS011;26259;50.214;18.620;2023-02-04T06:24:23;11.30;;;6.93;;
22677;SDS011;26259;50.214;18.620;2023-02-04T06:26:48;12.53;;;6.53;;
22677;SDS011;26259;50.214;18.620;2023-02-04T06:29:14;15.83;;;8.83;;
22677;SDS011;26259;50.214;18.620;2023-02-04T06:31:39;12.93;;;8.00;;
22677;SDS011;26259;50.214;18.620;2023-02-04T06:34:05;13.80;;;8.87;;
22677;SDS011;26259;50.214;18.620;2023-02-04T06:36:31;12.43;;;7.53;;
22677;SDS011;26259;50.214;18.620;2023-02-04T06:38:56;13.30;;;8.27;;
22677;SDS011;26259;50.214;18.620;2023-02-04T06:41:22;12.77;;;8.43;;
22677;SDS011;26259;50.214;18.620;2023-02-04T06:43:48;11.40;;;7.50;;
22677;SDS011;26259;50.214;18.620;2023-02-04T06:46:13;11.80;;;8.47;;
22677;SDS011;26259;50.214;18.620;2023-02-04T06:48:39;12.37;;;8.20;;
22677;SDS011;26259;50.214;18.620;2023-02-04T06:51:05;11.73;;;7.90;;
22677;SDS011;26259;50.214;18.620;2023-02-04T06:53:31;12.60;;;7.50;;
22677;SDS011;26259;50.214;18.620;2023-02-04T06:55:56;11.33;;;7.10;;
22677;SDS011;26259;50.214;18.620;2023-02-04T06:58:22;12.17;;;8.07;;
22677;SDS011;26259;50.214;18.620;2023-02-04T07:00:48;11.27;;;6.97;;
22677;SDS011;26259;50.214;18.620;2023-02-04T07:03:13;12.20;;;7.00;;
22677;SDS011;26259;50.214;18.620;2023-02-04T07:05:39;9.93;;;6.70;;
22677;SDS011;26259;50.214;18.620;2023-02-04T07:08:04;10.53;;;7.10;;
22677;SDS011;26259;50.214;18.620;2023-02-04T07:10:30;8.73;;;6.93;;
22677;SDS011;26259;50.214;18.620;2023-02-04T07:12:56;14.43;;;8.37;;
22677;SDS011;26259;50.214;18.620;2023-02-04T07:15:22;8.13;;;6.50;;
22677;SDS011;26259;50.214;18.620;2023-02-04T07:17:48;10.83;;;6.80;;
22677;SDS011;26259;50.214;18.620;2023-02-04T07:20:14;9.40;;;7.07;;
22677;SDS011;26259;50.214;18.620;2023-02-04T07:22:39;14.47;;;9.23;;
22677;SDS011;26259;50.214;18.620;2023-02-04T07:25:06;12.83;;;8.70;;
22677;SDS011;26259;50.214;18.620;2023-02-04T07:27:32;11.00;;;8.00;;
22677;SDS011;26259;50.214;18.620;2023-02-04T07:29:58;12.37;;;8.20;;
22677;SDS011;26259;50.214;18.620;2023-02-04T07:32:23;11.97;;;8.67;;
22677;SDS011;26259;50.214;18.620;2023-02-04T07:34:49;13.90;;;8.53;;
22677;SDS011;26259;50.214;18.620;2023-02-04T07:37:14;12.23;;;8.53;;
22677;SDS011;26259;50.214;18.620;2023-02-04T07:39:40;12.20;;;9.27;;
22677;SDS011;26259;50.214;18.620;2023-02-04T07:42:05;10.80;;;8.17;;
22677;SDS011;26259;50.214;18.620;2023-02-04T07:44:31;12.20;;;9.07;;
22677;SDS011;26259;50.214;18.620;2023-02-04T07:46:56;11.40;;;7.90;;
22677;SDS011;26259;50.214;18.620;2023-02-04T07:49:22;12.07;;;8.47;;
22677;SDS011;26259;50.214;18.620;2023-02-04T07:51:48;11.27;;;8.20;;
22677;SDS011;26259;50.214;18.620;2023-02-04T07:54:13;11.20;;;7.80;;
22677;SDS011;26259;50.214;18.620;2023-02-04T07:56:39;12.20;;;7.83;;
22677;SDS011;26259;50.214;18.620;2023-02-04T07:59:04;11.17;;;7.73;;
22677;SDS011;26259;50.214;18.620;2023-02-04T08:01:30;10.50;;;8.40;;
22677;SDS011;26259;50.214;18.620;2023-02-04T08:03:55;10.33;;;8.13;;
22677;SDS011;26259;50.214;18.620;2023-02-04T08:06:21;18.33;;;9.00;;
22677;SDS011;26259;50.214;18.620;2023-02-04T08:08:47;10.30;;;8.37;;
22677;SDS011;26259;50.214;18.620;2023-02-04T08:11:12;14.00;;;7.10;;
22677;SDS011;26259;50.214;18.620;2023-02-04T08:13:38;11.10;;;7.60;;
22677;SDS011;26259;50.214;18.620;2023-02-04T08:16:03;12.17;;;7.37;;
22677;SDS011;26259;50.214;18.620;2023-02-04T08:18:29;12.90;;;8.67;;
22677;SDS011;26259;50.214;18.620;2023-02-04T08:20:55;10.20;;;7.53;;
22677;SDS011;26259;50.214;18.620;2023-02-04T08:23:20;16.27;;;8.33;;
22677;SDS011;26259;50.214;18.620;2023-02-04T08:25:46;18.17;;;10.07;;
22677;SDS011;26259;50.214;18.620;2023-02-04T08:28:12;14.83;;;10.03;;
22677;SDS011;26259;50.214;18.620;2023-02-04T08:30:38;16.63;;;9.60;;
22677;SDS011;26259;50.214;18.620;2023-02-04T08:33:03;17.50;;;10.40;;
22677;SDS011;26259;50.214;18.620;2023-02-04T08:35:29;13.93;;;10.03;;
22677;SDS011;26259;50.214;18.620;2023-02-04T08:37:55;18.23;;;10.97;;
22677;SDS011;26259;50.214;18.620;2023-02-04T08:40:20;23.87;;;13.37;;
22677;SDS011;26259;50.214;18.620;2023-02-04T08:42:46;18.30;;;12.30;;
22677;SDS011;26259;50.214;18.620;2023-02-04T08:45:12;20.37;;;12.67;;
22677;SDS011;26259;50.214;18.620;2023-02-04T08:47:37;17.30;;;11.73;;
22677;SDS011;26259;50.214;18.620;2023-02-04T08:50:03;16.37;;;10.93;;
22677;SDS011;26259;50.214;18.620;2023-02-04T08:52:28;18.77;;;10.70;;
22677;SDS011;26259;50.214;18.620;2023-02-04T08:54:54;14.50;;;10.20;;
22677;SDS011;26259;50.214;18.620;2023-02-04T08:57:20;29.40;;;15.60;;
22677;SDS011;26259;50.214;18.620;2023-02-04T08:59:45;29.00;;;15.23;;
22677;SDS011;26259;50.214;18.620;2023-02-04T09:02:11;26.40;;;14.27;;
22677;SDS011;26259;50.214;18.620;2023-02-04T09:04:36;17.77;;;10.97;;
22677;SDS011;26259;50.214;18.620;2023-02-04T09:07:02;20.37;;;11.50;;
22677;SDS011;26259;50.214;18.620;2023-02-04T09:09:27;19.20;;;10.90;;
22677;SDS011;26259;50.214;18.620;2023-02-04T09:11:53;29.03;;;15.60;;
22677;SDS011;26259;50.214;18.620;2023-02-04T09:14:19;28.87;;;14.30;;
22677;SDS011;26259;50.214;18.620;2023-02-04T09:16:44;20.43;;;12.07;;
22677;SDS011;26259;50.214;18.620;2023-02-04T09:19:10;29.17;;;14.87;;
22677;SDS011;26259;50.214;18.620;2023-02-04T09:21:37;21.00;;;11.93;;
22677;SDS011;26259;50.214;18.620;2023-02-04T09:24:02;13.93;;;7.90;;
22677;SDS011;26259;50.214;18.620;2023-02-04T09:26:28;12.43;;;7.60;;
22677;SDS011;26259;50.214;18.620;2023-02-04T09:28:54;11.37;;;8.20;;
22677;SDS011;26259;50.214;18.620;2023-02-04T09:31:19;15.00;;;9.30;;
22677;SDS011;26259;50.214;18.620;2023-02-04T09:33:45;19.20;;;10.97;;
22677;SDS011;26259;50.214;18.620;2023-02-04T09:36:10;18.53;;;10.13;;
22677;SDS011;26259;50.214;18.620;2023-02-04T09:38:36;14.13;;;9.70;;
22677;SDS011;26259;50.214;18.620;2023-02-04T09:41:03;16.00;;;8.47;;
22677;SDS011;26259;50.214;18.620;2023-02-04T09:43:36;16.27;;;8.80;;
22677;SDS011;26259;50.214;18.620;2023-02-04T09:46:06;13.67;;;8.03;;
22677;SDS011;26259;50.214;18.620;2023-02-04T09:48:42;13.07;;;8.40;;
22677;SDS011;26259;50.214;18.620;2023-02-04T09:51:09;13.47;;;8.07;;
22677;SDS011;26259;50.214;18.620;2023-02-04T09:53:39;12.57;;;8.47;;
22677;SDS011;26259;50.214;18.620;2023-02-04T09:56:04;12.00;;;8.57;;
22677;SDS011;26259;50.214;18.620;2023-02-04T09:58:33;16.67;;;8.67;;
22677;SDS011;26259;50.214;18.620;2023-02-04T10:01:04;11.27;;;8.00;;
22677;SDS011;26259;50.214;18.620;2023-02-04T10:03:39;12.83;;;8.77;;
22677;SDS011;26259;50.214;18.620;2023-02-04T10:06:10;8.70;;;6.20;;
22677;SDS011;26259;50.214;18.620;2023-02-04T10:08:38;8.13;;;5.90;;
22677;SDS011;26259;50.214;18.620;2023-02-04T10:11:04;11.53;;;6.43;;
22677;SDS011;26259;50.214;18.620;2023-02-04T10:13:33;10.63;;;6.03;;
22677;SDS011;26259;50.214;18.620;2023-02-04T10:16:02;10.97;;;6.40;;
22677;SDS011;26259;50.214;18.620;2023-02-04T10:18:38;12.57;;;6.43;;
22677;SDS011;26259;50.214;18.620;2023-02-04T10:21:14;9.70;;;5.43;;
22677;SDS011;26259;50.214;18.620;2023-02-04T10:23:42;10.07;;;5.30;;
22677;SDS011;26259;50.214;18.620;2023-02-04T10:26:11;9.97;;;5.23;;
22677;SDS011;26259;50.214;18.620;2023-02-04T10:28:38;11.17;;;6.90;;
22677;SDS011;26259;50.214;18.620;2023-02-04T10:34:05;8.40;;;4.57;;
22677;SDS011;26259;50.214;18.620;2023-02-04T10:36:34;10.00;;;3.97;;
22677;SDS011;26259;50.214;18.620;2023-02-04T10:39:01;10.47;;;5.17;;
22677;SDS011;26259;50.214;18.620;2023-02-04T10:41:29;8.20;;;5.03;;
22677;SDS011;26259;50.214;18.620;2023-02-04T10:44:29;9.50;;;5.37;;
22677;SDS011;26259;50.214;18.620;2023-02-04T10:47:06;7.10;;;4.60;;
22677;SDS011;26259;50.214;18.620;2023-02-04T10:49:40;11.37;;;5.13;;
22677;SDS011;26259;50.214;18.620;2023-02-04T10:52:16;5.77;;;4.67;;
22677;SDS011;26259;50.214;18.620;2023-02-04T10:54:43;7.17;;;4.53;;
22677;SDS011;26259;50.214;18.620;2023-02-04T10:57:20;9.43;;;4.50;;
22677;SDS011;26259;50.214;18.620;2023-02-04T10:59:47;9.33;;;5.90;;
22677;SDS011;26259;50.214;18.620;2023-02-04T11:05:08;10.33;;;4.60;;
22677;SDS011;26259;50.214;18.620;2023-02-04T11:07:40;8.50;;;4.50;;
22677;SDS011;26259;50.214;18.620;2023-02-04T11:10:09;7.07;;;4.07;;
22677;SDS011;26259;50.214;18.620;2023-02-04T11:15:06;9.13;;;4.37;;
22677;SDS011;26259;50.214;18.620;2023-02-04T11:17:58;8.50;;;4.17;;
22677;SDS011;26259;50.214;18.620;2023-02-04T11:20:31;8.00;;;4.30;;
22677;SDS011;26259;50.214;18.620;2023-02-04T11:23:12;10.57;;;5.53;;
22677;SDS011;26259;50.214;18.620;2023-02-04T11:28:37;9.07;;;4.50;;
22677;SDS011;26259;50.214;18.620;2023-02-04T11:31:11;8.53;;;4.47;;
22677;SDS011;26259;50.214;18.620;2023-02-04T11:36:32;5.13;;;3.63;;
22677;SDS011;26259;50.214;18.620;2023-02-04T11:39:05;6.13;;;3.33;;
22677;SDS011;26259;50.214;18.620;2023-02-04T11:41:32;7.57;;;4.10;;
22677;SDS011;26259;50.214;18.620;2023-02-04T11:43:57;5.07;;;3.30;;
22677;SDS011;26259;50.214;18.620;2023-02-04T11:46:25;6.90;;;4.83;;
22677;SDS011;26259;50.214;18.620;2023-02-04T11:48:53;5.43;;;3.50;;
22677;SDS011;26259;50.214;18.620;2023-02-04T11:51:22;7.37;;;4.10;;
22677;SDS011;26259;50.214;18.620;2023-02-04T11:53:53;8.30;;;4.87;;
22677;SDS011;26259;50.214;18.620;2023-02-04T11:56:20;7.70;;;4.13;;
22677;SDS011;26259;50.214;18.620;2023-02-04T11:58:47;5.93;;;3.60;;
22677;SDS011;26259;50.214;18.620;2023-02-04T12:01:17;8.17;;;4.40;;
22677;SDS011;26259;50.214;18.620;2023-02-04T12:03:46;7.60;;;4.70;;
22677;SDS011;26259;50.214;18.620;2023-02-04T12:06:22;8.67;;;5.07;;
22677;SDS011;26259;50.214;18.620;2023-02-04T12:08:50;13.97;;;6.70;;
22677;SDS011;26259;50.214;18.620;2023-02-04T12:11:26;10.77;;;6.07;;
22677;SDS011;26259;50.214;18.620;2023-02-04T12:13:55;7.83;;;4.27;;
22677;SDS011;26259;50.214;18.620;2023-02-04T12:16:38;7.37;;;4.50;;
22677;SDS011;26259;50.214;18.620;2023-02-04T12:19:05;8.23;;;4.60;;
22677;SDS011;26259;50.214;18.620;2023-02-04T12:21:31;9.23;;;4.37;;
22677;SDS011;26259;50.214;18.620;2023-02-04T12:23:56;10.37;;;5.87;;
22677;SDS011;26259;50.214;18.620;2023-02-04T12:26:22;10.47;;;4.97;;
22677;SDS011;26259;50.214;18.620;2023-02-04T12:28:47;13.10;;;7.23;;
22677;SDS011;26259;50.214;18.620;2023-02-04T12:31:13;9.90;;;5.00;;
22677;SDS011;26259;50.214;18.620;2023-02-04T12:33:39;13.43;;;7.30;;
22677;SDS011;26259;50.214;18.620;2023-02-04T12:36:04;10.63;;;4.40;;
22677;SDS011;26259;50.214;18.620;2023-02-04T12:38:30;14.53;;;5.80;;
22677;SDS011;26259;50.214;18.620;2023-02-04T12:40:56;12.47;;;5.37;;
22677;SDS011;26259;50.214;18.620;2023-02-04T12:43:21;13.80;;;5.83;;
22677;SDS011;26259;50.214;18.620;2023-02-04T12:45:47;14.13;;;6.47;;
22677;SDS011;26259;50.214;18.620;2023-02-04T12:48:13;9.20;;;4.33;;
22677;SDS011;26259;50.214;18.620;2023-02-04T12:50:39;11.90;;;6.37;;
22677;SDS011;26259;50.214;18.620;2023-02-04T12:53:05;15.13;;;6.73;;
22677;SDS011;26259;50.214;18.620;2023-02-04T12:55:31;30.53;;;12.83;;
22677;SDS011;26259;50.214;18.620;2023-02-04T12:57:56;14.13;;;7.07;;
22677;SDS011;26259;50.214;18.620;2023-02-04T13:00:22;20.80;;;9.07;;
22677;SDS011;26259;50.214;18.620;2023-02-04T13:02:48;19.17;;;8.37;;
22677;SDS011;26259;50.214;18.620;2023-02-04T13:05:14;27.30;;;10.90;;
22677;SDS011;26259;50.214;18.620;2023-02-04T13:07:40;20.13;;;8.80;;
22677;SDS011;26259;50.214;18.620;2023-02-04T13:10:09;16.83;;;7.40;;
22677;SDS011;26259;50.214;18.620;2023-02-04T13:12:36;22.17;;;9.57;;
22677;SDS011;26259;50.214;18.620;2023-02-04T13:15:02;11.13;;;6.07;;
22677;SDS011;26259;50.214;18.620;2023-02-04T13:17:28;9.30;;;3.80;;
22677;SDS011;26259;50.214;18.620;2023-02-04T13:19:53;7.33;;;4.07;;
22677;SDS011;26259;50.214;18.620;2023-02-04T13:22:19;11.27;;;5.43;;
22677;SDS011;26259;50.214;18.620;2023-02-04T13:24:44;6.97;;;3.53;;
22677;SDS011;26259;50.214;18.620;2023-02-04T13:27:10;12.27;;;4.97;;
22677;SDS011;26259;50.214;18.620;2023-02-04T13:29:36;11.30;;;5.53;;
22677;SDS011;26259;50.214;18.620;2023-02-04T13:32:01;11.50;;;5.20;;
22677;SDS011;26259;50.214;18.620;2023-02-04T13:34:27;11.17;;;5.63;;
22677;SDS011;26259;50.214;18.620;2023-02-04T13:36:53;41.03;;;15.53;;
22677;SDS011;26259;50.214;18.620;2023-02-04T13:39:18;66.00;;;26.87;;
22677;SDS011;26259;50.214;18.620;2023-02-04T13:41:44;12.13;;;6.27;;
22677;SDS011;26259;50.214;18.620;2023-02-04T13:44:10;20.50;;;10.80;;
22677;SDS011;26259;50.214;18.620;2023-02-04T13:46:36;20.77;;;9.93;;
22677;SDS011;26259;50.214;18.620;2023-02-04T13:49:01;16.03;;;7.00;;
22677;SDS011;26259;50.214;18.620;2023-02-04T13:51:27;36.07;;;15.40;;
22677;SDS011;26259;50.214;18.620;2023-02-04T13:53:53;23.57;;;11.07;;
22677;SDS011;26259;50.214;18.620;2023-02-04T13:56:19;9.37;;;4.37;;
22677;SDS011;26259;50.214;18.620;2023-02-04T13:58:44;26.23;;;10.73;;
22677;SDS011;26259;50.214;18.620;2023-02-04T14:01:10;6.47;;;4.07;;
22677;SDS011;26259;50.214;18.620;2023-02-04T14:03:37;9.57;;;5.00;;
22677;SDS011;26259;50.214;18.620;2023-02-04T14:06:03;12.77;;;6.30;;
22677;SDS011;26259;50.214;18.620;2023-02-04T14:08:30;9.20;;;5.33;;
22677;SDS011;26259;50.214;18.620;2023-02-04T14:10:56;14.20;;;6.13;;
22677;SDS011;26259;50.214;18.620;2023-02-04T14:13:21;15.23;;;8.43;;
22677;SDS011;26259;50.214;18.620;2023-02-04T14:15:47;12.40;;;6.13;;
22677;SDS011;26259;50.214;18.620;2023-02-04T14:18:12;11.63;;;4.87;;
22677;SDS011;26259;50.214;18.620;2023-02-04T14:20:40;10.70;;;6.43;;
22677;SDS011;26259;50.214;18.620;2023-02-04T14:23:06;9.30;;;5.27;;
22677;SDS011;26259;50.214;18.620;2023-02-04T14:25:32;8.57;;;4.87;;
22677;SDS011;26259;50.214;18.620;2023-02-04T14:27:58;10.43;;;6.17;;
22677;SDS011;26259;50.214;18.620;2023-02-04T14:30:24;12.07;;;6.53;;
22677;SDS011;26259;50.214;18.620;2023-02-04T14:32:51;14.47;;;6.63;;
22677;SDS011;26259;50.214;18.620;2023-02-04T14:35:17;12.47;;;7.00;;
22677;SDS011;26259;50.214;18.620;2023-02-04T14:37:43;12.40;;;5.83;;